sensor_id;sensor_type;location;lat;lon;timestamp;P1;durP1;ratioP1;P2;durP2;ratioP2
20283;SDS011;10301;50.832;4.080;2023-03-21T00:01:04;17.55;;;6.05;;
20283;SDS011;10301;50.832;4.080;2023-03-21T00:03:31;11.30;;;5.00;;
20283;SDS011;10301;50.832;4.080;2023-03-21T00:05:58;12.57;;;6.05;;
20283;SDS011;10301;50.832;4.080;2023-03-21T00:08:28;14.07;;;5.00;;
20283;SDS011;10301;50.832;4.080;2023-03-21T00:10:57;15.43;;;5.38;;
20283;SDS011;10301;50.832;4.080;2023-03-21T00:13:25;11.95;;;5.10;;
20283;SDS011;10301;50.832;4.080;2023-03-21T00:15:52;12.48;;;5.07;;
20283;SDS011;10301;50.832;4.080;2023-03-21T00:18:19;11.30;;;5.22;;
20283;SDS011;10301;50.832;4.080;2023-03-21T00:20:57;12.63;;;4.97;;
20283;SDS011;10301;50.832;4.080;2023-03-21T00:23:26;12.43;;;5.40;;
20283;SDS011;10301;50.832;4.080;2023-03-21T00:25:53;15.13;;;6.20;;
20283;SDS011;10301;50.832;4.080;2023-03-21T00:28:19;13.38;;;5.10;;
20283;SDS011;10301;50.832;4.080;2023-03-21T00:30:45;13.23;;;4.60;;
20283;SDS011;10301;50.832;4.080;2023-03-21T00:33:11;14.23;;;4.55;;
20283;SDS011;10301;50.832;4.080;2023-03-21T00:35:38;13.65;;;4.60;;
20283;SDS011;10301;50.832;4.080;2023-03-21T00:38:07;14.85;;;4.68;;
20283;SDS011;10301;50.832;4.080;2023-03-21T00:40:33;11.45;;;5.20;;
20283;SDS011;10301;50.832;4.080;2023-03-21T00:42:59;15.40;;;5.78;;
20283;SDS011;10301;50.832;4.080;2023-03-21T00:45:25;17.67;;;6.72;;
20283;SDS011;10301;50.832;4.080;2023-03-21T00:47:51;16.75;;;6.65;;
20283;SDS011;10301;50.832;4.080;2023-03-21T00:50:16;17.60;;;6.53;;
20283;SDS011;10301;50.832;4.080;2023-03-21T00:52:43;21.02;;;6.40;;
20283;SDS011;10301;50.832;4.080;2023-03-21T00:55:11;22.88;;;7.07;;
20283;SDS011;10301;50.832;4.080;2023-03-21T00:57:38;16.67;;;6.18;;
20283;SDS011;10301;50.832;4.080;2023-03-21T01:00:05;18.17;;;7.05;;
20283;SDS011;10301;50.832;4.080;2023-03-21T01:02:34;20.02;;;6.53;;
20283;SDS011;10301;50.832;4.080;2023-03-21T01:04:59;20.70;;;5.90;;
20283;SDS011;10301;50.832;4.080;2023-03-21T01:07:25;15.93;;;5.82;;
20283;SDS011;10301;50.832;4.080;2023-03-21T01:09:50;19.27;;;6.85;;
20283;SDS011;10301;50.832;4.080;2023-03-21T01:12:16;16.38;;;6.13;;
20283;SDS011;10301;50.832;4.080;2023-03-21T01:14:42;14.38;;;6.40;;
20283;SDS011;10301;50.832;4.080;2023-03-21T01:17:07;18.42;;;6.22;;
20283;SDS011;10301;50.832;4.080;2023-03-21T01:19:33;14.52;;;5.72;;
20283;SDS011;10301;50.832;4.080;2023-03-21T01:21:59;15.85;;;5.93;;
20283;SDS011;10301;50.832;4.080;2023-03-21T01:24:25;17.33;;;5.68;;
20283;SDS011;10301;50.832;4.080;2023-03-21T01:26:51;15.10;;;6.28;;
20283;SDS011;10301;50.832;4.080;2023-03-21T01:29:16;19.77;;;6.43;;
20283;SDS011;10301;50.832;4.080;2023-03-21T01:31:42;15.07;;;5.60;;
20283;SDS011;10301;50.832;4.080;2023-03-21T01:34:08;13.90;;;5.78;;
20283;SDS011;10301;50.832;4.080;2023-03-21T01:36:33;13.10;;;5.10;;
20283;SDS011;10301;50.832;4.080;2023-03-21T01:38:59;17.08;;;6.38;;
20283;SDS011;10301;50.832;4.080;2023-03-21T01:41:26;15.45;;;6.30;;
20283;SDS011;10301;50.832;4.080;2023-03-21T01:43:57;18.75;;;6.25;;
20283;SDS011;10301;50.832;4.080;2023-03-21T01:46:27;13.55;;;6.30;;
20283;SDS011;10301;50.832;4.080;2023-03-21T01:49:22;16.10;;;6.15;;
20283;SDS011;10301;50.832;4.080;2023-03-21T01:51:53;16.17;;;6.95;;
20283;SDS011;10301;50.832;4.080;2023-03-21T01:54:24;15.25;;;6.55;;
20283;SDS011;10301;50.832;4.080;2023-03-21T01:56:53;17.00;;;6.00;;
20283;SDS011;10301;50.832;4.080;2023-03-21T02:01:52;16.27;;;6.15;;
20283;SDS011;10301;50.832;4.080;2023-03-21T02:04:21;16.45;;;6.57;;
20283;SDS011;10301;50.832;4.080;2023-03-21T02:07:13;16.38;;;6.28;;
20283;SDS011;10301;50.832;4.080;2023-03-21T02:09:43;18.95;;;5.60;;
20283;SDS011;10301;50.832;4.080;2023-03-21T02:12:11;17.05;;;5.88;;
20283;SDS011;10301;50.832;4.080;2023-03-21T02:14:37;15.95;;;6.30;;
20283;SDS011;10301;50.832;4.080;2023-03-21T02:17:14;15.02;;;6.35;;
20283;SDS011;10301;50.832;4.080;2023-03-21T02:33:56;15.70;;;5.30;;
20283;SDS011;10301;50.832;4.080;2023-03-21T02:39:25;14.18;;;5.00;;
20283;SDS011;10301;50.832;4.080;2023-03-21T02:44:43;16.52;;;4.88;;
20283;SDS011;10301;50.832;4.080;2023-03-21T02:47:18;14.52;;;5.15;;
20283;SDS011;10301;50.832;4.080;2023-03-21T02:49:51;12.70;;;5.18;;
20283;SDS011;10301;50.832;4.080;2023-03-21T02:52:24;15.43;;;4.82;;
20283;SDS011;10301;50.832;4.080;2023-03-21T02:54:52;12.38;;;5.10;;
20283;SDS011;10301;50.832;4.080;2023-03-21T02:57:20;14.37;;;4.80;;
20283;SDS011;10301;50.832;4.080;2023-03-21T02:59:47;11.00;;;5.00;;
20283;SDS011;10301;50.832;4.080;2023-03-21T03:02:15;15.27;;;5.60;;
20283;SDS011;10301;50.832;4.080;2023-03-21T03:04:44;12.27;;;4.82;;
20283;SDS011;10301;50.832;4.080;2023-03-21T03:10:05;10.40;;;4.53;;
20283;SDS011;10301;50.832;4.080;2023-03-21T03:15:23;12.30;;;5.57;;
20283;SDS011;10301;50.832;4.080;2023-03-21T03:17:58;15.55;;;4.95;;
20283;SDS011;10301;50.832;4.080;2023-03-21T03:20:29;18.38;;;5.80;;
20283;SDS011;10301;50.832;4.080;2023-03-21T03:25:49;13.75;;;5.38;;
20283;SDS011;10301;50.832;4.080;2023-03-21T03:28:33;15.98;;;6.65;;
20283;SDS011;10301;50.832;4.080;2023-03-21T03:31:02;20.83;;;6.10;;
20283;SDS011;10301;50.832;4.080;2023-03-21T03:33:29;13.85;;;6.60;;
20283;SDS011;10301;50.832;4.080;2023-03-21T03:35:57;18.52;;;7.03;;
20283;SDS011;10301;50.832;4.080;2023-03-21T03:38:24;15.23;;;6.22;;
20283;SDS011;10301;50.832;4.080;2023-03-21T03:40:53;16.10;;;7.43;;
20283;SDS011;10301;50.832;4.080;2023-03-21T03:43:25;17.25;;;6.70;;
20283;SDS011;10301;50.832;4.080;2023-03-21T03:45:59;18.80;;;6.85;;
20283;SDS011;10301;50.832;4.080;2023-03-21T03:48:40;20.33;;;6.25;;
20283;SDS011;10301;50.832;4.080;2023-03-21T03:51:19;19.13;;;7.15;;
20283;SDS011;10301;50.832;4.080;2023-03-21T03:54:29;16.83;;;7.47;;
20283;SDS011;10301;50.832;4.080;2023-03-21T03:56:38;17.52;;;7.45;;
20283;SDS011;10301;50.832;4.080;2023-03-21T03:59:04;19.65;;;7.20;;
20283;SDS011;10301;50.832;4.080;2023-03-21T04:01:32;16.42;;;6.85;;
20283;SDS011;10301;50.832;4.080;2023-03-21T04:03:58;22.60;;;7.68;;
20283;SDS011;10301;50.832;4.080;2023-03-21T04:06:25;18.00;;;7.30;;
20283;SDS011;10301;50.832;4.080;2023-03-21T04:08:53;15.43;;;6.90;;
20283;SDS011;10301;50.832;4.080;2023-03-21T04:11:20;21.77;;;8.35;;
20283;SDS011;10301;50.832;4.080;2023-03-21T04:13:46;20.55;;;8.20;;
20283;SDS011;10301;50.832;4.080;2023-03-21T04:16:12;17.58;;;7.40;;
20283;SDS011;10301;50.832;4.080;2023-03-21T04:18:39;16.88;;;7.68;;
20283;SDS011;10301;50.832;4.080;2023-03-21T04:21:11;17.92;;;7.47;;
20283;SDS011;10301;50.832;4.080;2023-03-21T04:23:38;16.38;;;7.20;;
20283;SDS011;10301;50.832;4.080;2023-03-21T04:26:04;19.38;;;7.38;;
20283;SDS011;10301;50.832;4.080;2023-03-21T04:28:31;16.92;;;8.02;;
20283;SDS011;10301;50.832;4.080;2023-03-21T04:30:58;20.35;;;7.88;;
20283;SDS011;10301;50.832;4.080;2023-03-21T04:33:23;15.85;;;7.40;;
20283;SDS011;10301;50.832;4.080;2023-03-21T04:35:52;16.13;;;7.78;;
20283;SDS011;10301;50.832;4.080;2023-03-21T04:38:23;16.85;;;7.68;;
20283;SDS011;10301;50.832;4.080;2023-03-21T04:40:50;17.52;;;8.20;;
20283;SDS011;10301;50.832;4.080;2023-03-21T04:43:16;13.75;;;7.15;;
20283;SDS011;10301;50.832;4.080;2023-03-21T04:45:42;17.98;;;8.02;;
20283;SDS011;10301;50.832;4.080;2023-03-21T04:48:08;15.60;;;7.85;;
20283;SDS011;10301;50.832;4.080;2023-03-21T04:50:34;20.65;;;8.27;;
20283;SDS011;10301;50.832;4.080;2023-03-21T04:53:00;15.48;;;8.15;;
20283;SDS011;10301;50.832;4.080;2023-03-21T04:55:26;15.80;;;7.65;;
20283;SDS011;10301;50.832;4.080;2023-03-21T04:57:55;18.65;;;7.45;;
20283;SDS011;10301;50.832;4.080;2023-03-21T05:00:21;17.98;;;8.18;;
20283;SDS011;10301;50.832;4.080;2023-03-21T05:02:47;18.58;;;7.57;;
20283;SDS011;10301;50.832;4.080;2023-03-21T05:05:13;19.13;;;7.25;;
20283;SDS011;10301;50.832;4.080;2023-03-21T05:07:39;17.98;;;7.85;;
20283;SDS011;10301;50.832;4.080;2023-03-21T05:10:05;20.17;;;7.40;;
20283;SDS011;10301;50.832;4.080;2023-03-21T05:12:34;19.05;;;8.10;;
20283;SDS011;10301;50.832;4.080;2023-03-21T05:14:59;21.05;;;8.90;;
20283;SDS011;10301;50.832;4.080;2023-03-21T05:17:25;17.17;;;7.82;;
20283;SDS011;10301;50.832;4.080;2023-03-21T05:19:52;17.58;;;7.47;;
20283;SDS011;10301;50.832;4.080;2023-03-21T05:22:20;17.73;;;8.07;;
20283;SDS011;10301;50.832;4.080;2023-03-21T05:24:48;22.05;;;8.35;;
20283;SDS011;10301;50.832;4.080;2023-03-21T05:27:17;20.67;;;7.88;;
20283;SDS011;10301;50.832;4.080;2023-03-21T05:30:12;21.13;;;7.85;;
20283;SDS011;10301;50.832;4.080;2023-03-21T05:32:39;19.45;;;8.90;;
20283;SDS011;10301;50.832;4.080;2023-03-21T05:35:05;16.70;;;7.80;;
20283;SDS011;10301;50.832;4.080;2023-03-21T05:37:31;22.73;;;8.07;;
20283;SDS011;10301;50.832;4.080;2023-03-21T05:39:57;20.08;;;8.48;;
20283;SDS011;10301;50.832;4.080;2023-03-21T05:42:23;21.55;;;8.88;;
20283;SDS011;10301;50.832;4.080;2023-03-21T05:44:49;17.08;;;7.78;;
20283;SDS011;10301;50.832;4.080;2023-03-21T05:47:15;21.45;;;8.10;;
20283;SDS011;10301;50.832;4.080;2023-03-21T05:49:41;22.70;;;7.82;;
20283;SDS011;10301;50.832;4.080;2023-03-21T05:52:07;16.10;;;7.80;;
20283;SDS011;10301;50.832;4.080;2023-03-21T05:54:33;22.08;;;7.88;;
20283;SDS011;10301;50.832;4.080;2023-03-21T05:57:00;13.68;;;6.22;;
20283;SDS011;10301;50.832;4.080;2023-03-21T05:59:26;16.38;;;6.65;;
20283;SDS011;10301;50.832;4.080;2023-03-21T06:01:51;21.52;;;8.25;;
20283;SDS011;10301;50.832;4.080;2023-03-21T06:04:17;16.08;;;7.47;;
20283;SDS011;10301;50.832;4.080;2023-03-21T06:06:43;16.57;;;7.57;;
20283;SDS011;10301;50.832;4.080;2023-03-21T06:09:09;21.05;;;8.27;;
20283;SDS011;10301;50.832;4.080;2023-03-21T06:11:36;18.13;;;7.60;;
20283;SDS011;10301;50.832;4.080;2023-03-21T06:14:02;15.30;;;7.00;;
20283;SDS011;10301;50.832;4.080;2023-03-21T06:16:28;25.70;;;7.78;;
20283;SDS011;10301;50.832;4.080;2023-03-21T06:18:54;19.70;;;7.57;;
20283;SDS011;10301;50.832;4.080;2023-03-21T06:21:21;19.60;;;7.97;;
20283;SDS011;10301;50.832;4.080;2023-03-21T06:23:46;20.75;;;8.25;;
20283;SDS011;10301;50.832;4.080;2023-03-21T06:26:15;18.93;;;8.00;;
20283;SDS011;10301;50.832;4.080;2023-03-21T06:28:43;16.88;;;7.50;;
20283;SDS011;10301;50.832;4.080;2023-03-21T06:31:09;16.80;;;8.02;;
20283;SDS011;10301;50.832;4.080;2023-03-21T06:33:35;19.58;;;7.70;;
20283;SDS011;10301;50.832;4.080;2023-03-21T06:36:01;14.38;;;7.60;;
20283;SDS011;10301;50.832;4.080;2023-03-21T06:38:27;18.67;;;7.87;;
20283;SDS011;10301;50.832;4.080;2023-03-21T06:40:52;15.95;;;7.53;;
20283;SDS011;10301;50.832;4.080;2023-03-21T06:43:18;19.08;;;6.97;;
20283;SDS011;10301;50.832;4.080;2023-03-21T06:45:44;18.70;;;6.97;;
20283;SDS011;10301;50.832;4.080;2023-03-21T06:48:10;21.95;;;7.38;;
20283;SDS011;10301;50.832;4.080;2023-03-21T06:50:36;19.95;;;7.57;;
20283;SDS011;10301;50.832;4.080;2023-03-21T06:53:01;16.15;;;6.60;;
20283;SDS011;10301;50.832;4.080;2023-03-21T06:55:27;20.00;;;6.72;;
20283;SDS011;10301;50.832;4.080;2023-03-21T06:57:54;12.18;;;6.40;;
20283;SDS011;10301;50.832;4.080;2023-03-21T07:00:21;19.25;;;6.93;;
20283;SDS011;10301;50.832;4.080;2023-03-21T07:02:48;16.65;;;6.65;;
20283;SDS011;10301;50.832;4.080;2023-03-21T07:05:14;18.55;;;5.82;;
20283;SDS011;10301;50.832;4.080;2023-03-21T07:07:40;14.60;;;6.10;;
20283;SDS011;10301;50.832;4.080;2023-03-21T07:10:06;13.70;;;5.93;;
20283;SDS011;10301;50.832;4.080;2023-03-21T07:12:32;17.85;;;6.57;;
20283;SDS011;10301;50.832;4.080;2023-03-21T07:15:00;11.52;;;5.60;;
20283;SDS011;10301;50.832;4.080;2023-03-21T07:17:26;12.63;;;5.18;;
20283;SDS011;10301;50.832;4.080;2023-03-21T07:19:52;16.25;;;4.97;;
20283;SDS011;10301;50.832;4.080;2023-03-21T07:22:17;10.68;;;5.32;;
20283;SDS011;10301;50.832;4.080;2023-03-21T07:24:43;12.00;;;5.60;;
20283;SDS011;10301;50.832;4.080;2023-03-21T07:27:12;14.27;;;5.45;;
20283;SDS011;10301;50.832;4.080;2023-03-21T07:29:38;11.55;;;5.28;;
20283;SDS011;10301;50.832;4.080;2023-03-21T07:32:05;15.00;;;5.38;;
20283;SDS011;10301;50.832;4.080;2023-03-21T07:34:30;12.05;;;5.82;;
20283;SDS011;10301;50.832;4.080;2023-03-21T07:36:58;9.50;;;5.55;;
20283;SDS011;10301;50.832;4.080;2023-03-21T07:39:24;12.95;;;5.78;;
20283;SDS011;10301;50.832;4.080;2023-03-21T07:41:51;11.73;;;5.97;;
20283;SDS011;10301;50.832;4.080;2023-03-21T07:44:19;12.93;;;5.80;;
20283;SDS011;10301;50.832;4.080;2023-03-21T07:46:46;13.38;;;6.03;;
20283;SDS011;10301;50.832;4.080;2023-03-21T07:49:12;13.30;;;5.85;;
20283;SDS011;10301;50.832;4.080;2023-03-21T07:51:38;17.90;;;6.75;;
20283;SDS011;10301;50.832;4.080;2023-03-21T07:54:03;10.85;;;5.20;;
20283;SDS011;10301;50.832;4.080;2023-03-21T07:56:29;13.45;;;5.55;;
20283;SDS011;10301;50.832;4.080;2023-03-21T07:58:55;12.38;;;5.38;;
20283;SDS011;10301;50.832;4.080;2023-03-21T08:01:21;15.73;;;5.97;;
20283;SDS011;10301;50.832;4.080;2023-03-21T08:03:47;10.10;;;5.10;;
20283;SDS011;10301;50.832;4.080;2023-03-21T08:06:15;11.98;;;5.20;;
20283;SDS011;10301;50.832;4.080;2023-03-21T08:08:41;13.40;;;5.60;;
20283;SDS011;10301;50.832;4.080;2023-03-21T08:11:06;13.82;;;5.47;;
20283;SDS011;10301;50.832;4.080;2023-03-21T08:13:32;17.20;;;5.78;;
20283;SDS011;10301;50.832;4.080;2023-03-21T08:15:58;11.85;;;5.00;;
20283;SDS011;10301;50.832;4.080;2023-03-21T08:18:24;11.38;;;5.25;;
20283;SDS011;10301;50.832;4.080;2023-03-21T08:20:50;13.73;;;5.32;;
20283;SDS011;10301;50.832;4.080;2023-03-21T08:23:17;11.65;;;5.45;;
20283;SDS011;10301;50.832;4.080;2023-03-21T08:25:43;17.17;;;5.07;;
20283;SDS011;10301;50.832;4.080;2023-03-21T08:28:08;15.15;;;5.55;;
20283;SDS011;10301;50.832;4.080;2023-03-21T08:30:34;14.70;;;5.68;;
20283;SDS011;10301;50.832;4.080;2023-03-21T08:33:02;11.10;;;5.13;;
20283;SDS011;10301;50.832;4.080;2023-03-21T08:35:29;14.65;;;5.60;;
20283;SDS011;10301;50.832;4.080;2023-03-21T08:37:55;13.57;;;5.65;;
20283;SDS011;10301;50.832;4.080;2023-03-21T08:40:22;15.98;;;5.93;;
20283;SDS011;10301;50.832;4.080;2023-03-21T08:42:47;12.77;;;5.40;;
20283;SDS011;10301;50.832;4.080;2023-03-21T08:45:13;12.90;;;5.70;;
20283;SDS011;10301;50.832;4.080;2023-03-21T08:47:41;12.13;;;5.82;;
20283;SDS011;10301;50.832;4.080;2023-03-21T08:50:07;15.52;;;5.50;;
20283;SDS011;10301;50.832;4.080;2023-03-21T08:52:35;12.43;;;5.30;;
20283;SDS011;10301;50.832;4.080;2023-03-21T08:55:01;16.10;;;5.40;;
20283;SDS011;10301;50.832;4.080;2023-03-21T08:57:28;16.55;;;5.93;;
20283;SDS011;10301;50.832;4.080;2023-03-21T08:59:53;11.98;;;5.78;;
20283;SDS011;10301;50.832;4.080;2023-03-21T09:02:19;11.93;;;5.00;;
20283;SDS011;10301;50.832;4.080;2023-03-21T09:04:45;11.88;;;5.13;;
20283;SDS011;10301;50.832;4.080;2023-03-21T09:07:11;10.73;;;5.18;;
20283;SDS011;10301;50.832;4.080;2023-03-21T09:09:39;14.60;;;5.80;;
20283;SDS011;10301;50.832;4.080;2023-03-21T09:12:05;10.65;;;5.25;;
20283;SDS011;10301;50.832;4.080;2023-03-21T09:14:32;12.77;;;5.18;;
20283;SDS011;10301;50.832;4.080;2023-03-21T09:16:58;12.80;;;5.70;;
20283;SDS011;10301;50.832;4.080;2023-03-21T09:19:24;12.20;;;4.93;;
20283;SDS011;10301;50.832;4.080;2023-03-21T09:21:51;13.48;;;5.13;;
20283;SDS011;10301;50.832;4.080;2023-03-21T09:24:18;12.43;;;5.00;;
20283;SDS011;10301;50.832;4.080;2023-03-21T09:26:44;14.02;;;5.57;;
20283;SDS011;10301;50.832;4.080;2023-03-21T09:29:10;11.38;;;4.75;;
20283;SDS011;10301;50.832;4.080;2023-03-21T09:31:36;9.63;;;4.18;;
20283;SDS011;10301;50.832;4.080;2023-03-21T09:34:04;13.07;;;4.22;;
20283;SDS011;10301;50.832;4.080;2023-03-21T09:36:30;12.63;;;4.68;;
20283;SDS011;10301;50.832;4.080;2023-03-21T09:38:58;14.75;;;4.15;;
20283;SDS011;10301;50.832;4.080;2023-03-21T09:47:01;9.25;;;3.70;;
20283;SDS011;10301;50.832;4.080;2023-03-21T09:49:50;11.95;;;3.78;;
20283;SDS011;10301;50.832;4.080;2023-03-21T09:52:24;10.63;;;4.15;;
20283;SDS011;10301;50.832;4.080;2023-03-21T09:54:54;15.10;;;6.63;;
20283;SDS011;10301;50.832;4.080;2023-03-21T09:57:23;16.75;;;8.13;;
20283;SDS011;10301;50.832;4.080;2023-03-21T10:00:09;12.27;;;5.35;;
20283;SDS011;10301;50.832;4.080;2023-03-21T10:02:47;10.23;;;3.80;;
20283;SDS011;10301;50.832;4.080;2023-03-21T10:05:22;13.00;;;3.72;;
20283;SDS011;10301;50.832;4.080;2023-03-21T10:10:50;10.85;;;3.83;;
20283;SDS011;10301;50.832;4.080;2023-03-21T10:13:23;9.88;;;3.80;;
20283;SDS011;10301;50.832;4.080;2023-03-21T10:15:59;10.77;;;3.72;;
20283;SDS011;10301;50.832;4.080;2023-03-21T10:18:29;15.40;;;4.43;;
20283;SDS011;10301;50.832;4.080;2023-03-21T10:20:55;12.43;;;4.25;;
20283;SDS011;10301;50.832;4.080;2023-03-21T10:23:22;12.70;;;3.90;;
20283;SDS011;10301;50.832;4.080;2023-03-21T10:25:54;12.57;;;4.40;;
20283;SDS011;10301;50.832;4.080;2023-03-21T10:28:27;12.60;;;4.25;;
20283;SDS011;10301;50.832;4.080;2023-03-21T10:30:57;10.90;;;5.18;;
20283;SDS011;10301;50.832;4.080;2023-03-21T10:33:31;11.68;;;4.00;;
20283;SDS011;10301;50.832;4.080;2023-03-21T10:36:07;9.70;;;4.38;;
20283;SDS011;10301;50.832;4.080;2023-03-21T10:38:35;12.95;;;4.20;;
20283;SDS011;10301;50.832;4.080;2023-03-21T10:41:08;10.32;;;4.90;;
20283;SDS011;10301;50.832;4.080;2023-03-21T10:43:35;11.60;;;5.00;;
20283;SDS011;10301;50.832;4.080;2023-03-21T10:46:26;12.82;;;4.13;;
20283;SDS011;10301;50.832;4.080;2023-03-21T10:48:51;10.82;;;3.88;;
20283;SDS011;10301;50.832;4.080;2023-03-21T10:51:19;9.45;;;3.95;;
20283;SDS011;10301;50.832;4.080;2023-03-21T10:53:50;11.55;;;3.85;;
20283;SDS011;10301;50.832;4.080;2023-03-21T10:56:25;11.10;;;4.05;;
20283;SDS011;10301;50.832;4.080;2023-03-21T10:58:53;10.27;;;4.07;;
20283;SDS011;10301;50.832;4.080;2023-03-21T11:01:25;9.18;;;3.80;;
20283;SDS011;10301;50.832;4.080;2023-03-21T11:04:23;9.65;;;3.85;;
20283;SDS011;10301;50.832;4.080;2023-03-21T11:06:58;10.95;;;4.40;;
20283;SDS011;10301;50.832;4.080;2023-03-21T11:09:47;9.02;;;4.30;;
20283;SDS011;10301;50.832;4.080;2023-03-21T11:12:35;13.07;;;5.05;;
20283;SDS011;10301;50.832;4.080;2023-03-21T11:17:52;8.35;;;4.10;;
20283;SDS011;10301;50.832;4.080;2023-03-21T11:20:19;10.05;;;4.43;;
20283;SDS011;10301;50.832;4.080;2023-03-21T11:22:45;10.23;;;4.35;;
20283;SDS011;10301;50.832;4.080;2023-03-21T11:27:50;10.68;;;4.78;;
20283;SDS011;10301;50.832;4.080;2023-03-21T11:30:20;8.75;;;4.30;;
20283;SDS011;10301;50.832;4.080;2023-03-21T11:32:50;10.10;;;4.45;;
20283;SDS011;10301;50.832;4.080;2023-03-21T11:35:33;8.48;;;4.22;;
20283;SDS011;10301;50.832;4.080;2023-03-21T11:38:00;11.52;;;4.00;;
20283;SDS011;10301;50.832;4.080;2023-03-21T11:42:53;9.65;;;3.88;;
20283;SDS011;10301;50.832;4.080;2023-03-21T11:45:27;7.63;;;3.80;;
20283;SDS011;10301;50.832;4.080;2023-03-21T11:47:58;8.93;;;3.88;;
20283;SDS011;10301;50.832;4.080;2023-03-21T11:50:32;9.60;;;4.05;;
20283;SDS011;10301;50.832;4.080;2023-03-21T11:58:35;10.75;;;3.90;;
20283;SDS011;10301;50.832;4.080;2023-03-21T12:04:32;12.05;;;3.90;;
20283;SDS011;10301;50.832;4.080;2023-03-21T12:12:44;9.23;;;3.67;;
20283;SDS011;10301;50.832;4.080;2023-03-21T12:20:38;9.20;;;4.22;;
20283;SDS011;10301;50.832;4.080;2023-03-21T12:26:07;9.45;;;5.03;;
20283;SDS011;10301;50.832;4.080;2023-03-21T12:28:59;11.18;;;4.63;;
20283;SDS011;10301;50.832;4.080;2023-03-21T12:34:11;9.82;;;4.40;;
20283;SDS011;10301;50.832;4.080;2023-03-21T12:39:19;10.40;;;5.15;;
20283;SDS011;10301;50.832;4.080;2023-03-21T12:42:27;11.52;;;4.97;;
20283;SDS011;10301;50.832;4.080;2023-03-21T12:45:03;7.80;;;4.38;;
20283;SDS011;10301;50.832;4.080;2023-03-21T12:47:36;10.55;;;5.13;;
20283;SDS011;10301;50.832;4.080;2023-03-21T12:50:21;8.30;;;4.18;;
20283;SDS011;10301;50.832;4.080;2023-03-21T12:52:56;11.55;;;5.07;;
20283;SDS011;10301;50.832;4.080;2023-03-21T12:55:32;8.10;;;4.20;;
20283;SDS011;10301;50.832;4.080;2023-03-21T12:58:01;7.93;;;4.70;;
20283;SDS011;10301;50.832;4.080;2023-03-21T13:00:34;11.25;;;5.38;;
20283;SDS011;10301;50.832;4.080;2023-03-21T13:05:47;10.45;;;4.82;;
20283;SDS011;10301;50.832;4.080;2023-03-21T13:10:48;7.35;;;4.55;;
20283;SDS011;10301;50.832;4.080;2023-03-21T13:16:08;8.70;;;4.90;;
20283;SDS011;10301;50.832;4.080;2023-03-21T13:21:21;12.32;;;5.55;;
20283;SDS011;10301;50.832;4.080;2023-03-21T13:24:03;9.25;;;4.40;;
20283;SDS011;10301;50.832;4.080;2023-03-21T13:26:42;10.25;;;4.72;;
20283;SDS011;10301;50.832;4.080;2023-03-21T13:31:48;11.10;;;5.10;;
20283;SDS011;10301;50.832;4.080;2023-03-21T13:34:16;10.43;;;5.20;;
20283;SDS011;10301;50.832;4.080;2023-03-21T13:36:45;11.07;;;5.57;;
20283;SDS011;10301;50.832;4.080;2023-03-21T13:39:25;11.65;;;5.75;;
20283;SDS011;10301;50.832;4.080;2023-03-21T13:51:04;13.82;;;5.63;;
20283;SDS011;10301;50.832;4.080;2023-03-21T13:56:23;12.35;;;5.88;;
20283;SDS011;10301;50.832;4.080;2023-03-21T13:58:50;9.90;;;5.25;;
20283;SDS011;10301;50.832;4.080;2023-03-21T14:04:12;13.50;;;6.03;;
20283;SDS011;10301;50.832;4.080;2023-03-21T14:09:08;15.35;;;6.85;;
20283;SDS011;10301;50.832;4.080;2023-03-21T14:11:41;12.27;;;6.75;;
20283;SDS011;10301;50.832;4.080;2023-03-21T14:14:07;14.07;;;7.13;;
20283;SDS011;10301;50.832;4.080;2023-03-21T14:16:34;13.35;;;6.80;;
20283;SDS011;10301;50.832;4.080;2023-03-21T14:19:01;10.65;;;6.03;;
20283;SDS011;10301;50.832;4.080;2023-03-21T14:21:30;12.80;;;6.72;;
20283;SDS011;10301;50.832;4.080;2023-03-21T14:23:59;13.52;;;6.97;;
20283;SDS011;10301;50.832;4.080;2023-03-21T14:26:49;10.38;;;6.65;;
20283;SDS011;10301;50.832;4.080;2023-03-21T14:29:24;14.32;;;7.60;;
20283;SDS011;10301;50.832;4.080;2023-03-21T14:31:54;12.93;;;6.88;;
20283;SDS011;10301;50.832;4.080;2023-03-21T14:34:21;12.43;;;7.80;;
20283;SDS011;10301;50.832;4.080;2023-03-21T14:36:47;14.63;;;7.18;;
20283;SDS011;10301;50.832;4.080;2023-03-21T14:41:50;14.52;;;7.35;;
20283;SDS011;10301;50.832;4.080;2023-03-21T14:46:50;15.43;;;6.68;;
20283;SDS011;10301;50.832;4.080;2023-03-21T14:51:49;10.02;;;6.28;;
20283;SDS011;10301;50.832;4.080;2023-03-21T14:54:19;10.10;;;5.95;;
20283;SDS011;10301;50.832;4.080;2023-03-21T14:56:49;9.32;;;5.78;;
20283;SDS011;10301;50.832;4.080;2023-03-21T14:59:19;11.05;;;6.20;;
20283;SDS011;10301;50.832;4.080;2023-03-21T15:01:48;9.25;;;5.95;;
20283;SDS011;10301;50.832;4.080;2023-03-21T15:04:16;10.52;;;6.32;;
20283;SDS011;10301;50.832;4.080;2023-03-21T15:06:55;11.82;;;6.57;;
20283;SDS011;10301;50.832;4.080;2023-03-21T15:09:28;10.20;;;6.70;;
20283;SDS011;10301;50.832;4.080;2023-03-21T15:11:55;13.23;;;6.65;;
20283;SDS011;10301;50.832;4.080;2023-03-21T15:14:26;10.85;;;6.90;;
20283;SDS011;10301;50.832;4.080;2023-03-21T15:17:01;10.75;;;7.07;;
20283;SDS011;10301;50.832;4.080;2023-03-21T15:19:30;12.95;;;7.93;;
20283;SDS011;10301;50.832;4.080;2023-03-21T15:22:00;12.75;;;7.47;;
20283;SDS011;10301;50.832;4.080;2023-03-21T15:24:35;14.07;;;7.15;;
20283;SDS011;10301;50.832;4.080;2023-03-21T15:27:11;14.88;;;7.30;;
20283;SDS011;10301;50.832;4.080;2023-03-21T15:29:41;13.13;;;7.70;;
20283;SDS011;10301;50.832;4.080;2023-03-21T15:32:12;12.25;;;6.55;;
20283;SDS011;10301;50.832;4.080;2023-03-21T15:34:44;10.68;;;6.78;;
20283;SDS011;10301;50.832;4.080;2023-03-21T15:37:15;10.75;;;6.32;;
20283;SDS011;10301;50.832;4.080;2023-03-21T15:39:49;12.57;;;6.63;;
20283;SDS011;10301;50.832;4.080;2023-03-21T15:42:26;15.95;;;7.82;;
20283;SDS011;10301;50.832;4.080;2023-03-21T15:44:55;11.85;;;7.00;;
20283;SDS011;10301;50.832;4.080;2023-03-21T15:47:38;9.70;;;6.70;;
20283;SDS011;10301;50.832;4.080;2023-03-21T15:52:58;10.48;;;5.93;;
20283;SDS011;10301;50.832;4.080;2023-03-21T15:55:27;9.82;;;5.55;;
20283;SDS011;10301;50.832;4.080;2023-03-21T15:58:10;11.00;;;5.95;;
20283;SDS011;10301;50.832;4.080;2023-03-21T16:00:41;8.93;;;5.88;;
20283;SDS011;10301;50.832;4.080;2023-03-21T16:03:30;10.50;;;5.82;;
20283;SDS011;10301;50.832;4.080;2023-03-21T16:06:03;13.02;;;7.72;;
20283;SDS011;10301;50.832;4.080;2023-03-21T16:08:32;14.65;;;7.80;;
20283;SDS011;10301;50.832;4.080;2023-03-21T16:11:36;8.35;;;4.88;;
20283;SDS011;10301;50.832;4.080;2023-03-21T16:13:53;11.20;;;5.40;;
20283;SDS011;10301;50.832;4.080;2023-03-21T16:16:21;14.40;;;6.38;;
20283;SDS011;10301;50.832;4.080;2023-03-21T16:18:48;8.95;;;5.55;;
20283;SDS011;10301;50.832;4.080;2023-03-21T16:21:16;9.02;;;5.35;;
20283;SDS011;10301;50.832;4.080;2023-03-21T16:23:44;9.82;;;5.70;;
20283;SDS011;10301;50.832;4.080;2023-03-21T16:26:18;11.77;;;6.65;;
20283;SDS011;10301;50.832;4.080;2023-03-21T16:28:46;10.70;;;5.78;;
20283;SDS011;10301;50.832;4.080;2023-03-21T16:31:13;10.45;;;5.32;;
20283;SDS011;10301;50.832;4.080;2023-03-21T16:33:42;9.68;;;5.03;;
20283;SDS011;10301;50.832;4.080;2023-03-21T16:36:15;9.65;;;5.63;;
20283;SDS011;10301;50.832;4.080;2023-03-21T16:38:44;11.10;;;5.97;;
20283;SDS011;10301;50.832;4.080;2023-03-21T16:41:11;11.32;;;6.13;;
20283;SDS011;10301;50.832;4.080;2023-03-21T16:43:38;9.68;;;6.35;;
20283;SDS011;10301;50.832;4.080;2023-03-21T16:48:47;11.15;;;5.85;;